Keewatin, MN (55753)

12:19 PM CDT on July 27, 2016 (GMT -0500)
Chisholm-hibbing | | Change Station

Elev 1352 ft 47.39 °N, 92.84 °W | Updated 26 minutes ago

Light Rain
Light Rain Mist
62 °F
Feels Like 62 °F
N
5
Wind Variable Wind from ESE

Today
High -- | Low -- °F
--% Chance of Precip.
Yesterday
High -- | Low -- °F
Precip. -- in
Pressure 30.04 in
Visibility 6.0 miles
Clouds Overcast 10000 ft
Dew Point 60 °F
Humidity 93%
Rainfall 0.12 in
Snow Depth Not available.
5:44 AM 8:51 PM
Last Quarter, 41% visible
METAR KHIB 271653Z AUTO 12004KT 6SM -RA BR OVC100 17/16 A3004 RMK AO2 SLP173 P0009 T01670156
Pressure 30.04 in
Visibility 6.0 miles
Clouds Overcast 10000 ft
Dew Point 60 °F
Humidity 93%
Rainfall 0.12 in
Snow Depth Not available.
5:44 AM 8:51 PM
Last Quarter, 41% visible
METAR KHIB 271653Z AUTO 12004KT 6SM -RA BR OVC100 17/16 A3004 RMK AO2 SLP173 P0009 T01670156

10-Day Weather Forecast

Almanac

Astronomy

Jul. 27, 2016 Rise Set
Actual Time
Civil Twilight
Nautical Twilight
Astronomical Twilight
Moon
Length of Visible Light
Length of Day
Tomorrow will be .
, % of the Moon is Illuminated

Today's Extremes

State Highs State Lows

Community

WunderPhotos

Upload Photos

1,927,884 photos uploaded!

WunderBlog® & News

Nearby

Air Quality

  Air Quality AQ Index Pollutant
Not available.

Snow Depth

Station Depth Elevation

Earthquake Activity

City Distance Mag. Time & Date
Minimum magnitude displayed is 2.5.

Coastal Water Temperatures

Place Temperature

Stations

Nearby Weather Stations

Station Location Temp. Windchill Dew Point Humidity Wind Precip. Elev Updated Type
                   

Watches & Warnings

There are currently no watches in effect.